»·PEaware :: ASA254 KPDX-KSEA

ASA254 :: KPDX-KSEA

FLIGHT INFORMATION

Flight Status: Arrived
Operator:
Alaska Airlines
More flights by this operator :: More flights under this callsign
Pilot: Kyle M. (9350)
Aircraft: AIRBUS A320
(A320)
More flights by this aircraft type
Origin: KPDX Portland Intl
United States
Destination: KSEA Seattle-Tacoma Intl
United States
More flights between these airports :: More routes between these airports
Route: +PTLD1 COUGA KRIEG HAWKZ7
File this flight plan on PilotEdge
Remarks: CptCanada - Youtube Livestreams!
Altitude:
(Current/Filed)
20,000ft
Speed:
(Current/Filed)
425kts
Departed: 26-Sep-18 07:23 PM
Arrived: 26-Sep-18 07:50 PM
Distance/Time
Traveled:
112nm/0:27
Distance/Time
To Go:
Arrived

Flight Plot

Page will automatically refresh every two minutes.

Flight plan parsing failed; only flown route is shown


Map Options




Map Legend


Flown Route
Filed Route
Departure Airport
Arrival Airport
Navaid (VOR, NDB)
Fix

Horizontal Profiles

Position Reports

Time Latitude Longitude Heading Altitude Ground
Speed
26-Sep-18 18:38 45.587817 -122.594861 10 38ft 0kts
26-Sep-18 18:39 45.587817 -122.594861 10 38ft 0kts
26-Sep-18 18:40 45.587817 -122.594861 10 38ft 0kts
26-Sep-18 18:41 45.587817 -122.594861 10 38ft 0kts
26-Sep-18 18:42 45.587817 -122.594861 10 38ft 0kts
26-Sep-18 18:43 45.587817 -122.594861 10 38ft 0kts
26-Sep-18 18:44 45.587817 -122.594861 10 38ft 0kts
26-Sep-18 18:45 45.587817 -122.594861 10 38ft 0kts
26-Sep-18 18:46 45.587817 -122.594861 10 38ft 0kts
26-Sep-18 18:47 45.587817 -122.594861 10 38ft 0kts
26-Sep-18 18:48 45.587817 -122.594861 10 38ft 0kts
26-Sep-18 18:49 45.587817 -122.594861 10 38ft 0kts
26-Sep-18 18:50 45.587817 -122.594861 10 38ft 0kts
26-Sep-18 18:51 45.587817 -122.594861 10 38ft 0kts
26-Sep-18 18:52 45.587817 -122.594861 10 38ft 0kts
26-Sep-18 18:53 45.587817 -122.594861 10 38ft 0kts
26-Sep-18 18:54 45.587817 -122.594861 10 38ft 0kts
26-Sep-18 18:55 45.587817 -122.594861 10 38ft 0kts
26-Sep-18 18:56 45.587817 -122.594861 10 38ft 0kts
26-Sep-18 18:57 45.587817 -122.594861 10 38ft 0kts
26-Sep-18 18:58 45.587817 -122.594861 10 38ft 0kts
26-Sep-18 18:59 45.587817 -122.594861 10 38ft 0kts
26-Sep-18 19:00 45.587817 -122.594861 10 38ft 0kts
26-Sep-18 19:01 45.587817 -122.594861 10 38ft 0kts
26-Sep-18 19:02 45.587817 -122.594861 10 38ft 0kts
26-Sep-18 19:03 45.587817 -122.594861 10 38ft 0kts
26-Sep-18 19:04 45.587817 -122.594861 10 38ft 0kts
26-Sep-18 19:05 45.587817 -122.594861 10 38ft 0kts
26-Sep-18 19:06 45.587817 -122.594861 10 38ft 0kts
26-Sep-18 19:07 45.587817 -122.594861 10 38ft 0kts
26-Sep-18 19:08 45.587817 -122.594861 10 38ft 0kts
26-Sep-18 19:09 45.587817 -122.594861 10 38ft 0kts
26-Sep-18 19:10 45.587817 -122.594861 10 38ft 0kts
26-Sep-18 19:11 45.587817 -122.594861 10 38ft 0kts
26-Sep-18 19:12 45.587817 -122.594861 10 38ft 0kts
26-Sep-18 19:13 45.587817 -122.594861 10 38ft 0kts
26-Sep-18 19:14 45.587817 -122.594861 10 38ft 0kts
26-Sep-18 19:15 45.587764 -122.594875 10 38ft 2kts
26-Sep-18 19:16 45.587269 -122.595012 28 38ft 2kts
26-Sep-18 19:17 45.587170 -122.595628 118 38ft 0kts
26-Sep-18 19:18 45.587169 -122.595627 118 38ft 0kts
26-Sep-18 19:19 45.587159 -122.595601 118 38ft 0kts
26-Sep-18 19:20 45.585372 -122.592160 128 38ft 16kts
26-Sep-18 19:21 45.583267 -122.587747 119 38ft 9kts
26-Sep-18 19:22 45.581769 -122.583934 121 38ft 7kts
26-Sep-18 19:23 45.581526 -122.583636 160 38ft 0kts
26-Sep-18 19:24 45.581526 -122.583636 160 38ft 0kts
26-Sep-18 19:25 45.581841 -122.587318 298 38ft 52kts
26-Sep-18 19:26 45.602566 -122.638228 301 1877ft 191kts
26-Sep-18 19:27 45.633479 -122.715688 300 4910ft 259kts
26-Sep-18 19:28 45.671371 -122.808857 302 8543ft 285kts
26-Sep-18 19:29 45.745256 -122.825271 16 11264ft 331kts
26-Sep-18 19:30 45.841733 -122.784800 16 13166ft 380kts
26-Sep-18 19:31 45.944279 -122.741273 17 15688ft 393kts
26-Sep-18 19:32 46.050012 -122.695483 17 17904ft 406kts
26-Sep-18 19:33 46.157119 -122.689805 353 19811ft 417kts
26-Sep-18 19:34 46.272066 -122.712639 353 20129ft 440kts
26-Sep-18 19:35 46.394919 -122.724765 359 20137ft 445kts
26-Sep-18 19:36 46.511358 -122.729173 359 19394ft 394kts
26-Sep-18 19:37 46.614818 -122.732944 359 16699ft 361kts
26-Sep-18 19:38 46.713226 -122.736429 359 14692ft 349kts
26-Sep-18 19:39 46.803665 -122.716323 38 13076ft 324kts
26-Sep-18 19:40 46.870604 -122.631953 42 11275ft 314kts
26-Sep-18 19:41 46.929552 -122.548261 45 10276ft 285kts
26-Sep-18 19:42 46.984491 -122.467403 34 8859ft 277kts
26-Sep-18 19:43 47.049919 -122.411599 29 7502ft 271kts
26-Sep-18 19:44 47.114003 -122.357322 29 6186ft 266kts
26-Sep-18 19:45 47.182178 -122.321075 18 5012ft 235kts
26-Sep-18 19:46 47.243063 -122.313051 0 4289ft 211kts
26-Sep-18 19:47 47.295738 -122.312568 1 3192ft 162kts
26-Sep-18 19:48 47.333511 -122.312200 0 2480ft 128kts
26-Sep-18 19:49 47.368711 -122.311907 0 1752ft 125kts
26-Sep-18 19:50 47.403652 -122.311584 0 1142ft 124kts
26-Sep-18 19:51 47.438206 -122.311258 1 478ft 124kts
26-Sep-18 19:52 47.454879 -122.309318 30 442ft 20kts
26-Sep-18 19:53 47.452854 -122.306247 180 442ft 17kts
26-Sep-18 19:54 47.447981 -122.306295 180 442ft 17kts
26-Sep-18 19:55 47.443089 -122.306328 180 442ft 9kts
26-Sep-18 19:56 47.442309 -122.304669 100 442ft 0kts

Navigation Log

Ident Type
Flight plan parsing failed, navigation log unavailable